Wednesday, November 22, 2017, 7:59 AM EST
Back to Local

KPEO, Penn Yan Airport

Location: Penn Yan, NY, United States Lat: 42.65
Local Time: 7:59 AM EST (12:59 GMT) Lon: -77.05
Time Zone: US/Eastern Elev: 977 ft

Show me the last for .
Show Decoded

2017-11-22 07:28 METAR KPEO 221228Z AUTO 32008KT 2SM -SN BR SCT009 OVC017 01/M01 A3002 RMK AO2
                 SNB1159 P0001 T00111006 =
2017-11-22 07:16 METAR KPEO 221216Z AUTO 31007G15KT 2SM -SN BR BKN008 OVC017 01/M01 A3001 RMK AO2
                 SNB1159 P0000 T00111006 =
2017-11-22 07:07 METAR KPEO 221207Z AUTO 31008KT 2SM -SN BR 01/M01 A3000 RMK AO2 SNB1159 P0000
                 T00111006 =
2017-11-22 06:53 METAR KPEO 221153Z AUTO 32008KT 3SM BR 01/M01 A3000 RMK AO2 SLP168 6//// 7////
                 T00111006 51029 PWINO FZRANO =
2017-11-22 05:53 METAR KPEO 221053Z AUTO A2997 RMK AO2 RAEMM SLPNO P0002 PWINO FZRANO RVRNO $ =
2017-11-22 05:34 METAR KPEO 221034Z AUTO 02/00 A2996 RMK AO2 RAEMM P0002 T00220000 PWINO FZRANO
                 RVRNO $ =
2017-11-22 05:15 METAR KPEO 221015Z AUTO 32006KT 6SM -RA OVC007 03/00 A2995 RMK AO2 CIG 006V010
                 P0001 T00280000 =
2017-11-22 04:53 METAR KPEO 220953Z AUTO VRB06KT 7SM -RA BKN011 OVC025 03/00 A2994 RMK AO2
                 RAB09E19B42 CIG 008V013 SLP144 P0000 T00330000 =
2017-11-22 04:00 METAR KPEO 220900Z AUTO 33009KT 10SM OVC011 05/02 A2991 RMK AO2 T00500017 =
2017-11-22 03:53 METAR KPEO 220853Z AUTO 30007KT 10SM BKN009 OVC015 05/02 A2991 RMK AO2 CIG
                 009V013 SLP133 T00500017 53017 =
2017-11-22 03:46 METAR KPEO 220846Z AUTO 32007KT 10SM BKN009 OVC015 06/02 A2991 RMK AO2 CIG
                 009V013 T00560017 =
2017-11-22 03:40 METAR KPEO 220840Z AUTO 34007KT 10SM FEW009 BKN015 OVC023 06/02 A2991 RMK AO2
                 T00560017 =
2017-11-22 03:29 METAR KPEO 220829Z AUTO 10SM BKN015 BKN022 OVC050 07/02 A2991 RMK AO2 T00670022
                 =
2017-11-22 02:53 METAR KPEO 220753Z AUTO 00000KT 10SM BKN055 07/02 A2989 RMK AO2 SLP124 T00670017
                 =
2017-11-22 01:53 METAR KPEO 220653Z AUTO 34005KT 10SM CLR 07/M01 A2987 RMK AO2 SLP117 T00671011 =
2017-11-22 00:53 METAR KPEO 220553Z AUTO 19003KT 10SM CLR 08/M01 A2986 RMK AO2 SLP114 T00781011
                 10078 20017 58006 =
2017-11-21 23:53 METAR KPEO 220453Z AUTO 24003KT 10SM CLR 07/M02 A2987 RMK AO2 SLP119 T00721017
                 401390017 =
2017-11-21 22:53 METAR KPEO 220353Z AUTO 22003KT 10SM FEW060 06/M01 A2987 RMK AO2 SLP119
                 T00561011 =
2017-11-21 21:53 METAR KPEO 220253Z AUTO 00000KT 10SM OVC065 03/M01 A2988 RMK AO2 SLP124
                 T00331011 51007 =
2017-11-21 20:53 METAR KPEO 220153Z AUTO VRB03KT 10SM CLR 08/M02 A2988 RMK AO2 SLP121 T00781022 =
2017-11-21 19:53 METAR KPEO 220053Z AUTO 00000KT 10SM CLR 03/M03 A2986 RMK AO2 SLP121 T00281033 =
2017-11-21 18:53 METAR KPEO 212353Z AUTO 00000KT 10SM CLR 03/M04 A2986 RMK AO2 SLP117 T00331039
                 10139 20028 51014 =
2017-11-21 17:53 METAR KPEO 212253Z AUTO 21004KT 10SM CLR 08/M04 A2985 RMK AO2 SLP112 T00781039 =
2017-11-21 16:53 METAR KPEO 212153Z AUTO 19006KT 10SM CLR 11/M04 A2983 RMK AO2 SLP104 T01111044 =
2017-11-21 15:53 METAR KPEO 212053Z AUTO 20009KT 10SM CLR 13/M05 A2982 RMK AO2 SLP099 T01331050 =
2017-11-21 14:53 METAR KPEO 211953Z AUTO 22011G19KT 10SM CLR 14/M06 A2979 RMK AO2 SLP091
                 T01391061 =
2017-11-21 13:53 METAR KPEO 211853Z AUTO 20011G20KT 10SM 13/M06 A2977 RMK AO2 SLP085 T01281056 $
                 =
2017-11-21 12:53 METAR KPEO 211753Z AUTO 20016G25KT 10SM CLR 13/M07 A2977 RMK AO2 PK WND
                 20029/1718 SLP084 T01281072 10128 20044 56016 =
2017-11-21 11:53 METAR KPEO 211653Z AUTO 19018G30KT 10SM CLR 12/M08 A2978 RMK AO2 PK WND
                 20031/1631 SLP088 T01171083 =
2017-11-21 10:53 METAR KPEO 211553Z AUTO 19017G25KT 10SM CLR 10/M08 A2980 RMK AO2 PK WND
                 18031/1457 SLP096 T01001078 =
2017-11-21 09:53 METAR KPEO 211453Z AUTO 19016G26KT 10SM CLR 08/M08 A2982 RMK AO2 PK WND
                 20028/1443 SLP103 T00781078 58014 =
2017-11-21 08:53 METAR KPEO 211353Z AUTO 20018G28KT 10SM CLR 06/M07 A2984 RMK AO2 PK WND
                 20028/1353 SLP111 T00611072 =

Support USWX by starting your Amazon purchase here.